Accueil
METAR-TAF:

METAR-TAF

Aéroports :

Red Oak Municipal Airport

Red Oak, Iowa, États-Unis

latitude: 41-01N, longitude: 095-16W, altitude: 318 m

Observation

Le bulletin a été fait il y a 43 minutes, à 19:15 UTC
Vent 4 kt de nord
Température 27°C
Humidité 62%
Pression 1018 hPa
Visibilité: 16.1 km
Nuages fragmentés à une hauteur de 3700 ft
Nuages fragmentés à une hauteur de 4400 ft

METAR: KRDK 221915Z AUTO 36004KT 10SM BKN037 BKN044 27/19 A3006 RMK AO2

Heure: 14:58 (19:58 UTC)


TAF: absent

Observations et prévisions météorologiques de plus de 4000 aéroports (messages METAR et TAF).

Les stations disponibles sont représentées par des disques jaunes et rouges sur la carte.

Passer la souris dessus pour voir le nom de la station.

Cliquer dessus pour voir les observations et prévisions météorologiques.

Pour changer de carte: cliquez sur les boutons verts avec une croix noire pour zoomer, sur le bouton vert avec un tiret pour effectuer un zoom arrière, ou sur les flèches vertes pour les cartes adjacentes.


METAR-TAF: